Terminal Aerodrome Forecast
Issued by NWS Riverton, WY

Home | Current Version | Previous Version | Text Only | Print | Product List | Glossary On
Versions: 1 2 3 4 5 6 7 8 9 10 11 12 13 14 15 16 17 18 19 20 21 22 23 24 25 26 27 28 29
000
FTUS45 KRIW 221733
TAFRIW
TAF
KRIW 221733Z 2218/2318 01025G35KT 4SM -SN SCT015 OVC025
      TEMPO 2218/2220 2SM -SN BKN015
     FM222100 02015G25KT P6SM VCSH OVC025
     FM230300 02007KT P6SM SCT050
     FM231200 VRB06KT P6SM SKC=

USA.gov is the U.S. government's official web portal to all federal, state and local government web resources and services.